sensor_id;sensor_type;location;lat;lon;timestamp;P1;durP1;ratioP1;P2;durP2;ratioP2
20008;SDS011;10165;42.662;23.260;2022-07-09T00:01:00;6.13;;;3.70;;
20008;SDS011;10165;42.662;23.260;2022-07-09T00:03:29;4.90;;;3.27;;
20008;SDS011;10165;42.662;23.260;2022-07-09T00:05:56;5.77;;;3.33;;
20008;SDS011;10165;42.662;23.260;2022-07-09T00:08:23;4.00;;;3.60;;
20008;SDS011;10165;42.662;23.260;2022-07-09T00:10:50;4.43;;;3.63;;
20008;SDS011;10165;42.662;23.260;2022-07-09T00:13:16;6.27;;;3.60;;
20008;SDS011;10165;42.662;23.260;2022-07-09T00:15:43;4.43;;;3.53;;
20008;SDS011;10165;42.662;23.260;2022-07-09T00:18:10;4.93;;;3.63;;
20008;SDS011;10165;42.662;23.260;2022-07-09T00:20:38;4.27;;;3.40;;
20008;SDS011;10165;42.662;23.260;2022-07-09T00:23:05;4.20;;;3.57;;
20008;SDS011;10165;42.662;23.260;2022-07-09T00:25:31;4.53;;;3.10;;
20008;SDS011;10165;42.662;23.260;2022-07-09T00:27:58;4.00;;;3.43;;
20008;SDS011;10165;42.662;23.260;2022-07-09T00:30:25;5.77;;;3.33;;
20008;SDS011;10165;42.662;23.260;2022-07-09T00:32:52;5.60;;;3.30;;
20008;SDS011;10165;42.662;23.260;2022-07-09T00:35:18;3.47;;;3.13;;
20008;SDS011;10165;42.662;23.260;2022-07-09T00:37:45;3.30;;;2.87;;
20008;SDS011;10165;42.662;23.260;2022-07-09T00:40:12;4.83;;;2.80;;
20008;SDS011;10165;42.662;23.260;2022-07-09T00:42:39;3.50;;;3.20;;
20008;SDS011;10165;42.662;23.260;2022-07-09T00:45:06;3.43;;;3.13;;
20008;SDS011;10165;42.662;23.260;2022-07-09T00:47:33;3.30;;;2.70;;
20008;SDS011;10165;42.662;23.260;2022-07-09T00:50:00;3.20;;;2.87;;
20008;SDS011;10165;42.662;23.260;2022-07-09T00:52:27;3.13;;;2.83;;
20008;SDS011;10165;42.662;23.260;2022-07-09T00:54:57;4.03;;;3.13;;
20008;SDS011;10165;42.662;23.260;2022-07-09T00:57:27;3.40;;;3.10;;
20008;SDS011;10165;42.662;23.260;2022-07-09T00:59:54;3.90;;;2.70;;
20008;SDS011;10165;42.662;23.260;2022-07-09T01:02:22;3.40;;;2.47;;
20008;SDS011;10165;42.662;23.260;2022-07-09T01:04:49;6.60;;;3.00;;
20008;SDS011;10165;42.662;23.260;2022-07-09T01:07:17;2.97;;;2.57;;
20008;SDS011;10165;42.662;23.260;2022-07-09T01:09:44;2.97;;;2.60;;
20008;SDS011;10165;42.662;23.260;2022-07-09T01:12:11;2.43;;;2.17;;
20008;SDS011;10165;42.662;23.260;2022-07-09T01:14:37;3.53;;;2.90;;
20008;SDS011;10165;42.662;23.260;2022-07-09T01:17:05;4.73;;;2.50;;
20008;SDS011;10165;42.662;23.260;2022-07-09T01:19:32;4.63;;;2.77;;
20008;SDS011;10165;42.662;23.260;2022-07-09T01:21:59;5.17;;;2.77;;
20008;SDS011;10165;42.662;23.260;2022-07-09T01:24:31;3.73;;;2.63;;
20008;SDS011;10165;42.662;23.260;2022-07-09T01:26:58;3.53;;;2.80;;
20008;SDS011;10165;42.662;23.260;2022-07-09T01:29:25;2.87;;;2.50;;
20008;SDS011;10165;42.662;23.260;2022-07-09T01:31:53;4.20;;;2.60;;
20008;SDS011;10165;42.662;23.260;2022-07-09T01:34:22;3.67;;;2.47;;
20008;SDS011;10165;42.662;23.260;2022-07-09T01:36:48;2.97;;;2.50;;
20008;SDS011;10165;42.662;23.260;2022-07-09T01:39:15;3.73;;;2.47;;
20008;SDS011;10165;42.662;23.260;2022-07-09T01:41:42;2.40;;;2.20;;
20008;SDS011;10165;42.662;23.260;2022-07-09T01:44:08;3.07;;;2.77;;
20008;SDS011;10165;42.662;23.260;2022-07-09T01:46:35;2.83;;;2.60;;
20008;SDS011;10165;42.662;23.260;2022-07-09T01:49:02;2.60;;;2.40;;
20008;SDS011;10165;42.662;23.260;2022-07-09T01:51:30;3.53;;;2.30;;
20008;SDS011;10165;42.662;23.260;2022-07-09T01:54:01;2.33;;;2.10;;
20008;SDS011;10165;42.662;23.260;2022-07-09T01:56:28;3.40;;;2.77;;
20008;SDS011;10165;42.662;23.260;2022-07-09T01:58:55;3.30;;;2.50;;
20008;SDS011;10165;42.662;23.260;2022-07-09T02:01:22;2.90;;;2.33;;
20008;SDS011;10165;42.662;23.260;2022-07-09T02:03:48;4.17;;;2.60;;
20008;SDS011;10165;42.662;23.260;2022-07-09T02:06:15;2.93;;;2.17;;
20008;SDS011;10165;42.662;23.260;2022-07-09T02:08:42;3.40;;;2.77;;
20008;SDS011;10165;42.662;23.260;2022-07-09T02:11:09;2.73;;;2.07;;
20008;SDS011;10165;42.662;23.260;2022-07-09T02:13:36;4.67;;;2.13;;
20008;SDS011;10165;42.662;23.260;2022-07-09T02:16:03;3.40;;;2.33;;
20008;SDS011;10165;42.662;23.260;2022-07-09T02:18:31;2.43;;;2.23;;
20008;SDS011;10165;42.662;23.260;2022-07-09T02:20:58;2.60;;;2.40;;
20008;SDS011;10165;42.662;23.260;2022-07-09T02:23:24;3.53;;;2.37;;
20008;SDS011;10165;42.662;23.260;2022-07-09T02:25:51;2.23;;;2.10;;
20008;SDS011;10165;42.662;23.260;2022-07-09T02:28:18;2.47;;;2.27;;
20008;SDS011;10165;42.662;23.260;2022-07-09T02:30:44;2.73;;;2.47;;
20008;SDS011;10165;42.662;23.260;2022-07-09T02:33:11;2.73;;;2.33;;
20008;SDS011;10165;42.662;23.260;2022-07-09T02:35:38;2.50;;;2.30;;
20008;SDS011;10165;42.662;23.260;2022-07-09T02:38:05;2.50;;;2.30;;
20008;SDS011;10165;42.662;23.260;2022-07-09T02:40:31;2.43;;;2.00;;
20008;SDS011;10165;42.662;23.260;2022-07-09T02:42:58;2.30;;;1.60;;
20008;SDS011;10165;42.662;23.260;2022-07-09T02:45:25;2.40;;;2.20;;
20008;SDS011;10165;42.662;23.260;2022-07-09T02:47:52;2.43;;;2.20;;
20008;SDS011;10165;42.662;23.260;2022-07-09T02:50:19;3.10;;;2.53;;
20008;SDS011;10165;42.662;23.260;2022-07-09T02:52:46;4.53;;;2.30;;
20008;SDS011;10165;42.662;23.260;2022-07-09T02:55:12;2.43;;;2.23;;
20008;SDS011;10165;42.662;23.260;2022-07-09T02:57:39;2.23;;;2.03;;
20008;SDS011;10165;42.662;23.260;2022-07-09T03:00:06;2.40;;;2.20;;
20008;SDS011;10165;42.662;23.260;2022-07-09T03:02:33;2.30;;;2.00;;
20008;SDS011;10165;42.662;23.260;2022-07-09T03:05:00;3.77;;;2.40;;
20008;SDS011;10165;42.662;23.260;2022-07-09T03:07:27;4.07;;;2.53;;
20008;SDS011;10165;42.662;23.260;2022-07-09T03:09:54;2.50;;;2.20;;
20008;SDS011;10165;42.662;23.260;2022-07-09T03:12:20;2.40;;;2.20;;
20008;SDS011;10165;42.662;23.260;2022-07-09T03:14:50;4.80;;;2.30;;
20008;SDS011;10165;42.662;23.260;2022-07-09T03:17:22;5.20;;;2.30;;
20008;SDS011;10165;42.662;23.260;2022-07-09T03:19:49;4.13;;;2.27;;
20008;SDS011;10165;42.662;23.260;2022-07-09T03:22:15;2.40;;;2.20;;
20008;SDS011;10165;42.662;23.260;2022-07-09T03:24:42;2.43;;;2.13;;
20008;SDS011;10165;42.662;23.260;2022-07-09T03:27:09;2.77;;;2.30;;
20008;SDS011;10165;42.662;23.260;2022-07-09T03:29:36;2.90;;;2.63;;
20008;SDS011;10165;42.662;23.260;2022-07-09T03:32:02;3.63;;;2.50;;
20008;SDS011;10165;42.662;23.260;2022-07-09T03:34:30;2.90;;;2.37;;
20008;SDS011;10165;42.662;23.260;2022-07-09T03:36:57;3.07;;;2.77;;
20008;SDS011;10165;42.662;23.260;2022-07-09T03:39:23;5.37;;;2.93;;
20008;SDS011;10165;42.662;23.260;2022-07-09T03:41:50;3.90;;;2.47;;
20008;SDS011;10165;42.662;23.260;2022-07-09T03:44:17;2.63;;;2.43;;
20008;SDS011;10165;42.662;23.260;2022-07-09T03:46:44;2.20;;;2.00;;
20008;SDS011;10165;42.662;23.260;2022-07-09T03:49:11;2.60;;;2.40;;
20008;SDS011;10165;42.662;23.260;2022-07-09T03:51:37;9.63;;;2.50;;
20008;SDS011;10165;42.662;23.260;2022-07-09T03:54:27;2.70;;;2.50;;
20008;SDS011;10165;42.662;23.260;2022-07-09T03:56:55;4.30;;;2.23;;
20008;SDS011;10165;42.662;23.260;2022-07-09T03:59:22;2.87;;;2.47;;
20008;SDS011;10165;42.662;23.260;2022-07-09T04:01:49;4.83;;;2.97;;
20008;SDS011;10165;42.662;23.260;2022-07-09T04:04:15;5.07;;;2.60;;
20008;SDS011;10165;42.662;23.260;2022-07-09T04:06:42;2.90;;;2.20;;
20008;SDS011;10165;42.662;23.260;2022-07-09T04:09:21;3.10;;;2.80;;
20008;SDS011;10165;42.662;23.260;2022-07-09T04:11:48;2.33;;;2.13;;
20008;SDS011;10165;42.662;23.260;2022-07-09T04:14:15;4.30;;;2.50;;
20008;SDS011;10165;42.662;23.260;2022-07-09T04:16:42;4.37;;;2.70;;
20008;SDS011;10165;42.662;23.260;2022-07-09T04:19:09;5.50;;;3.03;;
20008;SDS011;10165;42.662;23.260;2022-07-09T04:21:36;4.60;;;2.90;;
20008;SDS011;10165;42.662;23.260;2022-07-09T04:24:03;4.10;;;3.00;;
20008;SDS011;10165;42.662;23.260;2022-07-09T04:26:30;4.07;;;2.57;;
20008;SDS011;10165;42.662;23.260;2022-07-09T04:28:56;3.93;;;2.73;;
20008;SDS011;10165;42.662;23.260;2022-07-09T04:31:23;3.50;;;2.80;;
20008;SDS011;10165;42.662;23.260;2022-07-09T04:33:50;5.13;;;2.80;;
20008;SDS011;10165;42.662;23.260;2022-07-09T04:36:17;3.07;;;2.53;;
20008;SDS011;10165;42.662;23.260;2022-07-09T04:38:43;9.90;;;3.33;;
20008;SDS011;10165;42.662;23.260;2022-07-09T04:41:10;6.40;;;2.83;;
20008;SDS011;10165;42.662;23.260;2022-07-09T04:43:37;3.57;;;2.70;;
20008;SDS011;10165;42.662;23.260;2022-07-09T04:46:03;3.90;;;2.87;;
20008;SDS011;10165;42.662;23.260;2022-07-09T04:48:30;3.47;;;2.80;;
20008;SDS011;10165;42.662;23.260;2022-07-09T04:50:57;3.70;;;2.70;;
20008;SDS011;10165;42.662;23.260;2022-07-09T04:53:24;3.23;;;2.87;;
20008;SDS011;10165;42.662;23.260;2022-07-09T04:55:51;2.40;;;2.20;;
20008;SDS011;10165;42.662;23.260;2022-07-09T04:58:18;2.70;;;2.17;;
20008;SDS011;10165;42.662;23.260;2022-07-09T05:00:44;2.73;;;2.40;;
20008;SDS011;10165;42.662;23.260;2022-07-09T05:03:11;3.27;;;2.93;;
20008;SDS011;10165;42.662;23.260;2022-07-09T05:05:38;3.30;;;3.00;;
20008;SDS011;10165;42.662;23.260;2022-07-09T05:08:15;2.87;;;2.40;;
20008;SDS011;10165;42.662;23.260;2022-07-09T05:10:42;4.60;;;2.80;;
20008;SDS011;10165;42.662;23.260;2022-07-09T05:13:09;2.67;;;2.47;;
20008;SDS011;10165;42.662;23.260;2022-07-09T05:15:36;4.07;;;2.60;;
20008;SDS011;10165;42.662;23.260;2022-07-09T05:18:02;2.83;;;2.63;;
20008;SDS011;10165;42.662;23.260;2022-07-09T05:20:29;2.50;;;2.27;;
20008;SDS011;10165;42.662;23.260;2022-07-09T05:22:56;2.77;;;2.17;;
20008;SDS011;10165;42.662;23.260;2022-07-09T05:25:23;2.30;;;2.10;;
20008;SDS011;10165;42.662;23.260;2022-07-09T05:27:50;5.63;;;2.77;;
20008;SDS011;10165;42.662;23.260;2022-07-09T05:30:17;3.00;;;2.70;;
20008;SDS011;10165;42.662;23.260;2022-07-09T05:32:45;5.23;;;2.37;;
20008;SDS011;10165;42.662;23.260;2022-07-09T05:35:12;2.60;;;2.40;;
20008;SDS011;10165;42.662;23.260;2022-07-09T05:37:43;5.00;;;2.63;;
20008;SDS011;10165;42.662;23.260;2022-07-09T05:40:10;2.47;;;1.97;;
20008;SDS011;10165;42.662;23.260;2022-07-09T05:42:38;2.00;;;1.80;;
20008;SDS011;10165;42.662;23.260;2022-07-09T05:45:05;2.40;;;2.20;;
20008;SDS011;10165;42.662;23.260;2022-07-09T05:47:32;2.27;;;2.07;;
20008;SDS011;10165;42.662;23.260;2022-07-09T05:50:00;2.30;;;2.10;;
20008;SDS011;10165;42.662;23.260;2022-07-09T05:52:26;2.00;;;1.80;;
20008;SDS011;10165;42.662;23.260;2022-07-09T05:54:53;2.37;;;2.10;;
20008;SDS011;10165;42.662;23.260;2022-07-09T05:57:20;5.97;;;2.20;;
20008;SDS011;10165;42.662;23.260;2022-07-09T05:59:46;2.90;;;2.50;;
20008;SDS011;10165;42.662;23.260;2022-07-09T06:02:13;2.30;;;2.10;;
20008;SDS011;10165;42.662;23.260;2022-07-09T06:04:40;1.97;;;1.87;;
20008;SDS011;10165;42.662;23.260;2022-07-09T06:07:07;2.53;;;1.80;;
20008;SDS011;10165;42.662;23.260;2022-07-09T06:09:34;3.00;;;1.97;;
20008;SDS011;10165;42.662;23.260;2022-07-09T06:12:00;2.10;;;2.00;;
20008;SDS011;10165;42.662;23.260;2022-07-09T06:14:27;3.40;;;2.37;;
20008;SDS011;10165;42.662;23.260;2022-07-09T06:16:54;3.53;;;2.23;;
20008;SDS011;10165;42.662;23.260;2022-07-09T06:19:22;3.30;;;2.10;;
20008;SDS011;10165;42.662;23.260;2022-07-09T06:21:49;2.00;;;1.90;;
20008;SDS011;10165;42.662;23.260;2022-07-09T06:24:16;2.10;;;1.90;;
20008;SDS011;10165;42.662;23.260;2022-07-09T06:26:42;2.30;;;2.10;;
20008;SDS011;10165;42.662;23.260;2022-07-09T06:29:09;2.53;;;2.33;;
20008;SDS011;10165;42.662;23.260;2022-07-09T06:31:36;2.40;;;2.20;;
20008;SDS011;10165;42.662;23.260;2022-07-09T06:34:02;2.23;;;1.90;;
20008;SDS011;10165;42.662;23.260;2022-07-09T06:36:29;4.00;;;2.30;;
20008;SDS011;10165;42.662;23.260;2022-07-09T06:38:56;2.40;;;2.20;;
20008;SDS011;10165;42.662;23.260;2022-07-09T06:41:41;2.90;;;1.60;;
20008;SDS011;10165;42.662;23.260;2022-07-09T06:44:08;2.07;;;1.87;;
20008;SDS011;10165;42.662;23.260;2022-07-09T06:46:34;2.33;;;2.07;;
20008;SDS011;10165;42.662;23.260;2022-07-09T06:49:02;2.73;;;2.00;;
20008;SDS011;10165;42.662;23.260;2022-07-09T06:51:29;2.23;;;2.00;;
20008;SDS011;10165;42.662;23.260;2022-07-09T06:53:56;2.40;;;2.20;;
20008;SDS011;10165;42.662;23.260;2022-07-09T06:56:22;2.73;;;2.27;;
20008;SDS011;10165;42.662;23.260;2022-07-09T06:58:49;2.40;;;2.20;;
20008;SDS011;10165;42.662;23.260;2022-07-09T07:01:16;3.00;;;2.60;;
20008;SDS011;10165;42.662;23.260;2022-07-09T07:03:42;3.50;;;2.50;;
20008;SDS011;10165;42.662;23.260;2022-07-09T07:06:09;2.87;;;2.37;;
20008;SDS011;10165;42.662;23.260;2022-07-09T07:08:36;3.00;;;2.63;;
20008;SDS011;10165;42.662;23.260;2022-07-09T07:11:03;2.77;;;2.50;;
20008;SDS011;10165;42.662;23.260;2022-07-09T07:13:30;2.27;;;2.07;;
20008;SDS011;10165;42.662;23.260;2022-07-09T07:15:57;2.50;;;2.30;;
20008;SDS011;10165;42.662;23.260;2022-07-09T07:18:24;2.30;;;2.10;;
20008;SDS011;10165;42.662;23.260;2022-07-09T07:20:50;3.20;;;2.90;;
20008;SDS011;10165;42.662;23.260;2022-07-09T07:23:17;3.03;;;2.80;;
20008;SDS011;10165;42.662;23.260;2022-07-09T07:25:44;3.00;;;2.73;;
20008;SDS011;10165;42.662;23.260;2022-07-09T07:28:11;2.63;;;2.40;;
20008;SDS011;10165;42.662;23.260;2022-07-09T07:30:38;3.10;;;2.80;;
20008;SDS011;10165;42.662;23.260;2022-07-09T07:33:05;3.67;;;2.90;;
20008;SDS011;10165;42.662;23.260;2022-07-09T07:35:31;3.40;;;3.10;;
20008;SDS011;10165;42.662;23.260;2022-07-09T07:37:58;3.27;;;2.90;;
20008;SDS011;10165;42.662;23.260;2022-07-09T07:40:27;4.77;;;3.17;;
20008;SDS011;10165;42.662;23.260;2022-07-09T07:42:54;3.67;;;3.23;;
20008;SDS011;10165;42.662;23.260;2022-07-09T07:45:21;2.83;;;2.63;;
20008;SDS011;10165;42.662;23.260;2022-07-09T07:47:48;3.33;;;3.03;;
20008;SDS011;10165;42.662;23.260;2022-07-09T07:50:14;3.13;;;2.80;;
20008;SDS011;10165;42.662;23.260;2022-07-09T07:52:41;4.60;;;2.53;;
20008;SDS011;10165;42.662;23.260;2022-07-09T07:55:13;4.53;;;2.70;;
20008;SDS011;10165;42.662;23.260;2022-07-09T07:57:40;3.13;;;2.77;;
20008;SDS011;10165;42.662;23.260;2022-07-09T08:00:06;2.77;;;2.53;;
20008;SDS011;10165;42.662;23.260;2022-07-09T08:02:34;2.67;;;2.47;;
20008;SDS011;10165;42.662;23.260;2022-07-09T08:05:01;6.13;;;2.93;;
20008;SDS011;10165;42.662;23.260;2022-07-09T08:07:27;2.97;;;2.70;;
20008;SDS011;10165;42.662;23.260;2022-07-09T08:09:54;2.83;;;2.60;;
20008;SDS011;10165;42.662;23.260;2022-07-09T08:12:21;2.93;;;2.63;;
20008;SDS011;10165;42.662;23.260;2022-07-09T08:14:48;3.53;;;3.03;;
20008;SDS011;10165;42.662;23.260;2022-07-09T08:17:14;5.13;;;2.90;;
20008;SDS011;10165;42.662;23.260;2022-07-09T08:19:41;3.40;;;2.93;;
20008;SDS011;10165;42.662;23.260;2022-07-09T08:22:08;3.07;;;2.77;;
20008;SDS011;10165;42.662;23.260;2022-07-09T08:24:35;2.90;;;2.53;;
20008;SDS011;10165;42.662;23.260;2022-07-09T08:27:01;3.20;;;2.90;;
20008;SDS011;10165;42.662;23.260;2022-07-09T08:29:28;4.73;;;2.80;;
20008;SDS011;10165;42.662;23.260;2022-07-09T08:31:56;4.03;;;2.60;;
20008;SDS011;10165;42.662;23.260;2022-07-09T08:34:22;2.53;;;2.33;;
20008;SDS011;10165;42.662;23.260;2022-07-09T08:36:49;3.43;;;3.13;;
20008;SDS011;10165;42.662;23.260;2022-07-09T08:39:16;3.70;;;3.37;;
20008;SDS011;10165;42.662;23.260;2022-07-09T08:41:43;4.00;;;2.90;;
20008;SDS011;10165;42.662;23.260;2022-07-09T08:44:10;3.20;;;2.90;;
20008;SDS011;10165;42.662;23.260;2022-07-09T08:46:38;4.17;;;2.93;;
20008;SDS011;10165;42.662;23.260;2022-07-09T08:49:07;3.87;;;3.40;;
20008;SDS011;10165;42.662;23.260;2022-07-09T08:51:35;3.20;;;2.90;;
20008;SDS011;10165;42.662;23.260;2022-07-09T08:54:05;7.13;;;3.13;;
20008;SDS011;10165;42.662;23.260;2022-07-09T08:56:33;3.80;;;3.40;;
20008;SDS011;10165;42.662;23.260;2022-07-09T08:59:00;3.87;;;3.47;;
20008;SDS011;10165;42.662;23.260;2022-07-09T09:01:26;3.33;;;3.03;;
20008;SDS011;10165;42.662;23.260;2022-07-09T09:03:54;3.50;;;3.20;;
20008;SDS011;10165;42.662;23.260;2022-07-09T09:06:21;3.00;;;2.80;;
20008;SDS011;10165;42.662;23.260;2022-07-09T09:08:52;3.27;;;2.97;;
20008;SDS011;10165;42.662;23.260;2022-07-09T09:11:21;4.47;;;3.47;;
20008;SDS011;10165;42.662;23.260;2022-07-09T09:13:49;3.60;;;3.27;;
20008;SDS011;10165;42.662;23.260;2022-07-09T09:16:18;4.67;;;3.20;;
20008;SDS011;10165;42.662;23.260;2022-07-09T09:18:46;3.10;;;2.80;;
20008;SDS011;10165;42.662;23.260;2022-07-09T09:21:15;4.50;;;3.07;;
20008;SDS011;10165;42.662;23.260;2022-07-09T09:26:16;4.13;;;3.17;;
20008;SDS011;10165;42.662;23.260;2022-07-09T09:33:45;5.50;;;3.83;;
20008;SDS011;10165;42.662;23.260;2022-07-09T09:36:25;3.50;;;3.20;;
20008;SDS011;10165;42.662;23.260;2022-07-09T09:39:16;3.67;;;3.13;;
20008;SDS011;10165;42.662;23.260;2022-07-09T09:41:44;3.90;;;3.20;;
20008;SDS011;10165;42.662;23.260;2022-07-09T09:44:13;3.80;;;3.50;;
20008;SDS011;10165;42.662;23.260;2022-07-09T09:46:42;3.53;;;3.00;;
20008;SDS011;10165;42.662;23.260;2022-07-09T09:49:11;3.30;;;3.00;;
20008;SDS011;10165;42.662;23.260;2022-07-09T09:51:47;3.47;;;3.17;;
20008;SDS011;10165;42.662;23.260;2022-07-09T09:54:18;4.77;;;3.10;;
20008;SDS011;10165;42.662;23.260;2022-07-09T09:56:46;3.13;;;2.80;;
20008;SDS011;10165;42.662;23.260;2022-07-09T09:59:13;3.50;;;3.20;;
20008;SDS011;10165;42.662;23.260;2022-07-09T10:01:41;3.30;;;3.00;;
20008;SDS011;10165;42.662;23.260;2022-07-09T10:04:10;3.47;;;3.17;;
20008;SDS011;10165;42.662;23.260;2022-07-09T10:06:37;4.17;;;3.10;;
20008;SDS011;10165;42.662;23.260;2022-07-09T10:09:05;5.17;;;3.23;;
20008;SDS011;10165;42.662;23.260;2022-07-09T10:11:40;3.00;;;2.70;;
20008;SDS011;10165;42.662;23.260;2022-07-09T10:14:28;3.53;;;3.10;;
20008;SDS011;10165;42.662;23.260;2022-07-09T10:17:10;4.47;;;3.50;;
20008;SDS011;10165;42.662;23.260;2022-07-09T10:19:37;3.77;;;3.40;;
20008;SDS011;10165;42.662;23.260;2022-07-09T10:22:04;5.17;;;3.60;;
20008;SDS011;10165;42.662;23.260;2022-07-09T10:24:36;5.07;;;3.20;;
20008;SDS011;10165;42.662;23.260;2022-07-09T10:27:08;4.47;;;3.23;;
20008;SDS011;10165;42.662;23.260;2022-07-09T10:29:53;3.73;;;2.60;;
20008;SDS011;10165;42.662;23.260;2022-07-09T10:32:30;5.33;;;2.90;;
20008;SDS011;10165;42.662;23.260;2022-07-09T10:35:04;2.73;;;2.53;;
20008;SDS011;10165;42.662;23.260;2022-07-09T10:40:14;2.30;;;2.10;;
20008;SDS011;10165;42.662;23.260;2022-07-09T10:42:43;1.83;;;1.73;;
20008;SDS011;10165;42.662;23.260;2022-07-09T10:47:44;3.60;;;2.00;;
20008;SDS011;10165;42.662;23.260;2022-07-09T10:50:13;2.50;;;1.70;;
20008;SDS011;10165;42.662;23.260;2022-07-09T10:52:40;4.83;;;1.80;;
20008;SDS011;10165;42.662;23.260;2022-07-09T10:55:07;2.90;;;1.80;;
20008;SDS011;10165;42.662;23.260;2022-07-09T10:57:34;1.50;;;1.30;;
20008;SDS011;10165;42.662;23.260;2022-07-09T11:00:02;1.83;;;1.60;;
20008;SDS011;10165;42.662;23.260;2022-07-09T11:02:29;1.50;;;1.40;;
20008;SDS011;10165;42.662;23.260;2022-07-09T11:04:56;1.47;;;1.30;;
20008;SDS011;10165;42.662;23.260;2022-07-09T11:07:24;2.13;;;1.70;;
20008;SDS011;10165;42.662;23.260;2022-07-09T11:09:52;6.10;;;1.83;;
20008;SDS011;10165;42.662;23.260;2022-07-09T11:12:19;1.73;;;1.63;;
20008;SDS011;10165;42.662;23.260;2022-07-09T11:14:50;1.53;;;1.43;;
20008;SDS011;10165;42.662;23.260;2022-07-09T11:17:19;2.67;;;1.87;;
20008;SDS011;10165;42.662;23.260;2022-07-09T11:19:48;1.97;;;1.60;;
20008;SDS011;10165;42.662;23.260;2022-07-09T11:22:15;2.00;;;1.80;;
20008;SDS011;10165;42.662;23.260;2022-07-09T11:24:42;1.90;;;1.80;;
20008;SDS011;10165;42.662;23.260;2022-07-09T11:27:09;2.43;;;1.37;;
20008;SDS011;10165;42.662;23.260;2022-07-09T11:29:36;1.73;;;1.57;;
20008;SDS011;10165;42.662;23.260;2022-07-09T11:32:03;1.60;;;1.50;;
20008;SDS011;10165;42.662;23.260;2022-07-09T11:34:30;1.67;;;1.57;;
20008;SDS011;10165;42.662;23.260;2022-07-09T11:36:58;4.97;;;2.00;;
20008;SDS011;10165;42.662;23.260;2022-07-09T11:39:29;2.23;;;1.50;;
20008;SDS011;10165;42.662;23.260;2022-07-09T11:41:58;3.47;;;1.53;;
20008;SDS011;10165;42.662;23.260;2022-07-09T11:47:00;4.40;;;1.97;;
20008;SDS011;10165;42.662;23.260;2022-07-09T11:49:34;1.90;;;1.70;;
20008;SDS011;10165;42.662;23.260;2022-07-09T11:52:03;1.53;;;1.43;;
20008;SDS011;10165;42.662;23.260;2022-07-09T11:54:31;1.60;;;1.50;;
20008;SDS011;10165;42.662;23.260;2022-07-09T11:56:58;1.67;;;1.57;;
20008;SDS011;10165;42.662;23.260;2022-07-09T11:59:28;1.70;;;1.50;;
20008;SDS011;10165;42.662;23.260;2022-07-09T12:01:59;1.63;;;1.50;;
20008;SDS011;10165;42.662;23.260;2022-07-09T12:04:29;2.10;;;1.90;;
20008;SDS011;10165;42.662;23.260;2022-07-09T12:06:57;1.60;;;1.50;;
20008;SDS011;10165;42.662;23.260;2022-07-09T12:09:30;1.73;;;1.63;;
20008;SDS011;10165;42.662;23.260;2022-07-09T12:11:58;1.87;;;1.77;;
20008;SDS011;10165;42.662;23.260;2022-07-09T12:14:26;3.57;;;2.10;;
20008;SDS011;10165;42.662;23.260;2022-07-09T12:16:53;1.50;;;1.40;;
20008;SDS011;10165;42.662;23.260;2022-07-09T12:19:20;1.70;;;1.60;;
20008;SDS011;10165;42.662;23.260;2022-07-09T12:21:46;1.90;;;1.77;;
20008;SDS011;10165;42.662;23.260;2022-07-09T12:24:13;1.80;;;1.70;;
20008;SDS011;10165;42.662;23.260;2022-07-09T12:26:40;1.47;;;1.37;;
20008;SDS011;10165;42.662;23.260;2022-07-09T12:29:27;2.07;;;1.87;;
20008;SDS011;10165;42.662;23.260;2022-07-09T12:31:53;3.50;;;1.77;;
20008;SDS011;10165;42.662;23.260;2022-07-09T12:34:20;1.67;;;1.43;;
20008;SDS011;10165;42.662;23.260;2022-07-09T12:36:47;1.80;;;1.70;;
20008;SDS011;10165;42.662;23.260;2022-07-09T12:39:24;1.57;;;1.47;;
20008;SDS011;10165;42.662;23.260;2022-07-09T12:41:51;1.80;;;1.70;;
20008;SDS011;10165;42.662;23.260;2022-07-09T12:44:18;1.60;;;1.50;;
20008;SDS011;10165;42.662;23.260;2022-07-09T12:46:44;4.53;;;3.87;;
20008;SDS011;10165;42.662;23.260;2022-07-09T12:49:11;3.10;;;2.90;;
20008;SDS011;10165;42.662;23.260;2022-07-09T12:51:38;5.63;;;4.20;;
20008;SDS011;10165;42.662;23.260;2022-07-09T12:54:05;3.00;;;2.60;;
20008;SDS011;10165;42.662;23.260;2022-07-09T12:56:31;2.20;;;1.87;;
20008;SDS011;10165;42.662;23.260;2022-07-09T12:59:18;2.03;;;1.80;;
20008;SDS011;10165;42.662;23.260;2022-07-09T13:01:45;1.90;;;1.80;;
20008;SDS011;10165;42.662;23.260;2022-07-09T13:04:12;1.43;;;1.27;;
20008;SDS011;10165;42.662;23.260;2022-07-09T13:06:39;1.87;;;1.67;;
20008;SDS011;10165;42.662;23.260;2022-07-09T13:09:07;1.60;;;1.50;;
20008;SDS011;10165;42.662;23.260;2022-07-09T13:11:34;1.67;;;1.57;;
20008;SDS011;10165;42.662;23.260;2022-07-09T13:14:02;1.80;;;1.70;;
20008;SDS011;10165;42.662;23.260;2022-07-09T13:16:29;1.93;;;1.70;;
20008;SDS011;10165;42.662;23.260;2022-07-09T13:18:56;2.10;;;1.90;;
20008;SDS011;10165;42.662;23.260;2022-07-09T13:21:23;4.23;;;2.37;;
20008;SDS011;10165;42.662;23.260;2022-07-09T13:23:50;2.67;;;2.10;;
20008;SDS011;10165;42.662;23.260;2022-07-09T13:26:17;3.93;;;3.63;;
20008;SDS011;10165;42.662;23.260;2022-07-09T13:28:44;2.53;;;2.30;;
20008;SDS011;10165;42.662;23.260;2022-07-09T13:31:11;3.43;;;3.07;;
20008;SDS011;10165;42.662;23.260;2022-07-09T13:33:37;2.40;;;2.20;;
20008;SDS011;10165;42.662;23.260;2022-07-09T13:36:04;1.87;;;1.77;;
20008;SDS011;10165;42.662;23.260;2022-07-09T13:38:32;2.07;;;1.80;;
20008;SDS011;10165;42.662;23.260;2022-07-09T13:40:59;4.47;;;1.87;;
20008;SDS011;10165;42.662;23.260;2022-07-09T13:43:27;1.60;;;1.50;;
20008;SDS011;10165;42.662;23.260;2022-07-09T13:46:01;1.80;;;1.60;;
20008;SDS011;10165;42.662;23.260;2022-07-09T13:48:28;2.10;;;1.90;;
20008;SDS011;10165;42.662;23.260;2022-07-09T13:50:55;2.70;;;1.80;;
20008;SDS011;10165;42.662;23.260;2022-07-09T13:53:22;2.00;;;1.90;;
20008;SDS011;10165;42.662;23.260;2022-07-09T13:55:48;2.27;;;2.03;;
20008;SDS011;10165;42.662;23.260;2022-07-09T13:58:15;2.67;;;2.00;;
20008;SDS011;10165;42.662;23.260;2022-07-09T14:00:42;1.80;;;1.70;;
20008;SDS011;10165;42.662;23.260;2022-07-09T14:03:09;2.00;;;1.90;;
20008;SDS011;10165;42.662;23.260;2022-07-09T14:05:36;4.27;;;2.00;;
20008;SDS011;10165;42.662;23.260;2022-07-09T14:08:04;2.07;;;1.97;;
20008;SDS011;10165;42.662;23.260;2022-07-09T14:10:32;2.87;;;1.80;;
20008;SDS011;10165;42.662;23.260;2022-07-09T14:13:00;3.20;;;1.97;;
20008;SDS011;10165;42.662;23.260;2022-07-09T14:15:27;3.00;;;1.90;;
20008;SDS011;10165;42.662;23.260;2022-07-09T14:17:54;2.30;;;1.90;;
20008;SDS011;10165;42.662;23.260;2022-07-09T14:20:20;2.03;;;1.63;;
20008;SDS011;10165;42.662;23.260;2022-07-09T14:22:47;1.83;;;1.73;;
20008;SDS011;10165;42.662;23.260;2022-07-09T14:25:14;1.83;;;1.73;;
20008;SDS011;10165;42.662;23.260;2022-07-09T14:27:42;1.97;;;1.80;;
20008;SDS011;10165;42.662;23.260;2022-07-09T14:30:09;2.17;;;1.97;;
20008;SDS011;10165;42.662;23.260;2022-07-09T14:32:36;2.63;;;1.77;;
20008;SDS011;10165;42.662;23.260;2022-07-09T14:35:03;2.67;;;1.90;;
20008;SDS011;10165;42.662;23.260;2022-07-09T14:37:30;1.97;;;1.87;;
20008;SDS011;10165;42.662;23.260;2022-07-09T14:39:57;2.00;;;1.90;;
20008;SDS011;10165;42.662;23.260;2022-07-09T14:46:12;2.17;;;1.97;;
20008;SDS011;10165;42.662;23.260;2022-07-09T14:48:39;1.60;;;1.50;;
20008;SDS011;10165;42.662;23.260;2022-07-09T14:51:08;2.23;;;1.70;;
20008;SDS011;10165;42.662;23.260;2022-07-09T14:53:35;2.43;;;1.80;;
20008;SDS011;10165;42.662;23.260;2022-07-09T14:56:09;2.13;;;1.87;;